sensor_id;sensor_type;location;lat;lon;timestamp;pressure;altitude;pressure_sealevel;temperature;humidity
79136;BME280;68533;51.090;17.216;2023-05-17T00:01:02;100234.25;;;8.95;98.03
79136;BME280;68533;51.090;17.216;2023-05-17T00:03:28;100241.13;;;8.92;98.52
79136;BME280;68533;51.090;17.216;2023-05-17T00:05:54;100236.19;;;8.94;98.16
79136;BME280;68533;51.090;17.216;2023-05-17T00:08:21;100237.00;;;8.90;98.65
79136;BME280;68533;51.090;17.216;2023-05-17T00:10:46;100244.13;;;8.91;99.07
79136;BME280;68533;51.090;17.216;2023-05-17T00:13:15;100253.19;;;8.91;98.83
79136;BME280;68533;51.090;17.216;2023-05-17T00:15:41;100244.13;;;8.91;98.46
79136;BME280;68533;51.090;17.216;2023-05-17T00:18:07;100247.72;;;8.97;97.88
79136;BME280;68533;51.090;17.216;2023-05-17T00:20:34;100246.31;;;8.99;97.77
79136;BME280;68533;51.090;17.216;2023-05-17T00:23:01;100246.59;;;8.92;98.11
79136;BME280;68533;51.090;17.216;2023-05-17T00:25:27;100252.34;;;8.91;98.17
79136;BME280;68533;51.090;17.216;2023-05-17T00:27:53;100247.13;;;8.89;98.68
79136;BME280;68533;51.090;17.216;2023-05-17T00:30:19;100237.56;;;8.92;97.77
79136;BME280;68533;51.090;17.216;2023-05-17T00:32:45;100240.28;;;8.92;98.22
79136;BME280;68533;51.090;17.216;2023-05-17T00:35:14;100245.22;;;8.90;97.99
79136;BME280;68533;51.090;17.216;2023-05-17T00:37:41;100234.25;;;8.90;98.38
79136;BME280;68533;51.090;17.216;2023-05-17T00:40:13;100231.81;;;8.88;98.00
79136;BME280;68533;51.090;17.216;2023-05-17T00:42:41;100240.03;;;8.88;98.56
79136;BME280;68533;51.090;17.216;2023-05-17T00:45:07;100245.53;;;8.88;98.53
79136;BME280;68533;51.090;17.216;2023-05-17T00:47:33;100236.75;;;8.86;98.87
79136;BME280;68533;51.090;17.216;2023-05-17T00:49:59;100241.13;;;8.87;98.54
79136;BME280;68533;51.090;17.216;2023-05-17T00:52:25;100252.09;;;8.82;98.77
79136;BME280;68533;51.090;17.216;2023-05-17T00:54:51;100247.72;;;8.86;98.05
79136;BME280;68533;51.090;17.216;2023-05-17T00:57:18;100245.25;;;8.85;98.55
79136;BME280;68533;51.090;17.216;2023-05-17T00:59:44;100248.25;;;8.83;99.07
79136;BME280;68533;51.090;17.216;2023-05-17T01:02:12;100243.63;;;8.79;99.14
79136;BME280;68533;51.090;17.216;2023-05-17T01:04:37;100245.25;;;8.80;98.64
79136;BME280;68533;51.090;17.216;2023-05-17T01:07:04;100240.59;;;8.80;98.72
79136;BME280;68533;51.090;17.216;2023-05-17T01:09:30;100231.81;;;8.78;98.31
79136;BME280;68533;51.090;17.216;2023-05-17T01:12:06;100243.88;;;8.77;98.68
79136;BME280;68533;51.090;17.216;2023-05-17T01:20:37;100252.13;;;8.72;98.34
79136;BME280;68533;51.090;17.216;2023-05-17T01:26:03;100254.31;;;8.70;98.50
79136;BME280;68533;51.090;17.216;2023-05-17T01:28:32;100250.47;;;8.71;98.27
79136;BME280;68533;51.090;17.216;2023-05-17T01:31:01;100252.13;;;8.72;97.91
79136;BME280;68533;51.090;17.216;2023-05-17T01:33:28;100246.91;;;8.71;97.84
79136;BME280;68533;51.090;17.216;2023-05-17T01:35:54;100249.38;;;8.67;97.98
79136;BME280;68533;51.090;17.216;2023-05-17T01:38:24;100256.25;;;8.65;98.63
79136;BME280;68533;51.090;17.216;2023-05-17T01:46:42;100264.19;;;8.66;98.67
79136;BME280;68533;51.090;17.216;2023-05-17T01:54:42;100253.78;;;8.63;98.40
79136;BME280;68533;51.090;17.216;2023-05-17T01:57:08;100252.13;;;8.62;98.78
79136;BME280;68533;51.090;17.216;2023-05-17T01:59:37;100252.94;;;8.63;98.91
79136;BME280;68533;51.090;17.216;2023-05-17T02:02:04;100255.44;;;8.59;98.27
79136;BME280;68533;51.090;17.216;2023-05-17T02:04:36;100271.31;;;8.57;98.98
79136;BME280;68533;51.090;17.216;2023-05-17T02:07:02;100269.13;;;8.59;98.69
79136;BME280;68533;51.090;17.216;2023-05-17T02:09:30;100272.97;;;8.58;98.32
79136;BME280;68533;51.090;17.216;2023-05-17T02:11:55;100268.84;;;8.55;98.95
79136;BME280;68533;51.090;17.216;2023-05-17T02:14:22;100279.81;;;8.55;98.64
79136;BME280;68533;51.090;17.216;2023-05-17T02:16:47;100279.56;;;8.52;99.17
79136;BME280;68533;51.090;17.216;2023-05-17T02:19:13;100271.03;;;8.53;98.59
79136;BME280;68533;51.090;17.216;2023-05-17T02:21:39;100270.75;;;8.55;98.57
79136;BME280;68533;51.090;17.216;2023-05-17T02:24:05;100266.94;;;8.56;98.57
79136;BME280;68533;51.090;17.216;2023-05-17T02:26:31;100263.09;;;8.52;98.21
79136;BME280;68533;51.090;17.216;2023-05-17T02:28:57;100265.28;;;8.55;98.44
79136;BME280;68533;51.090;17.216;2023-05-17T02:31:23;100259.25;;;8.53;98.70
79136;BME280;68533;51.090;17.216;2023-05-17T02:33:54;100272.94;;;8.53;98.41
79136;BME280;68533;51.090;17.216;2023-05-17T02:36:20;100272.41;;;8.51;97.84
79136;BME280;68533;51.090;17.216;2023-05-17T02:38:47;100274.59;;;8.49;97.91
79136;BME280;68533;51.090;17.216;2023-05-17T02:41:13;100272.69;;;8.54;97.61
79136;BME280;68533;51.090;17.216;2023-05-17T02:43:39;100273.50;;;8.50;97.25
79136;BME280;68533;51.090;17.216;2023-05-17T02:46:05;100270.50;;;8.46;97.22
79136;BME280;68533;51.090;17.216;2023-05-17T02:48:31;100263.09;;;8.42;96.99
79136;BME280;68533;51.090;17.216;2023-05-17T02:51:00;100270.22;;;8.38;97.30
79136;BME280;68533;51.090;17.216;2023-05-17T02:53:31;100277.34;;;8.44;96.28
79136;BME280;68533;51.090;17.216;2023-05-17T02:55:57;100277.63;;;8.37;96.65
79136;BME280;68533;51.090;17.216;2023-05-17T02:58:24;100277.91;;;8.36;96.03
79136;BME280;68533;51.090;17.216;2023-05-17T03:00:50;100275.66;;;8.28;95.75
79136;BME280;68533;51.090;17.216;2023-05-17T03:03:16;100281.69;;;8.30;95.18
79136;BME280;68533;51.090;17.216;2023-05-17T03:05:42;100287.16;;;8.25;96.14
79136;BME280;68533;51.090;17.216;2023-05-17T03:08:09;100290.44;;;8.16;95.22
79136;BME280;68533;51.090;17.216;2023-05-17T03:10:36;100299.47;;;8.17;95.70
79136;BME280;68533;51.090;17.216;2023-05-17T03:13:05;100291.00;;;8.13;94.51
79136;BME280;68533;51.090;17.216;2023-05-17T03:15:31;100303.28;;;8.11;95.20
79136;BME280;68533;51.090;17.216;2023-05-17T03:17:58;100310.44;;;8.12;94.78
79136;BME280;68533;51.090;17.216;2023-05-17T03:20:24;100311.25;;;8.07;94.71
79136;BME280;68533;51.090;17.216;2023-05-17T03:22:53;100311.25;;;8.07;93.93
79136;BME280;68533;51.090;17.216;2023-05-17T03:25:19;100309.56;;;8.01;95.69
79136;BME280;68533;51.090;17.216;2023-05-17T03:27:48;100313.38;;;8.00;95.07
79136;BME280;68533;51.090;17.216;2023-05-17T03:30:14;100318.88;;;7.95;94.67
79136;BME280;68533;51.090;17.216;2023-05-17T03:32:41;100321.03;;;7.93;94.64
79136;BME280;68533;51.090;17.216;2023-05-17T03:35:07;100322.97;;;7.93;94.44
79136;BME280;68533;51.090;17.216;2023-05-17T03:37:36;100321.03;;;7.88;94.83
79136;BME280;68533;51.090;17.216;2023-05-17T03:40:02;100321.03;;;7.88;94.35
79136;BME280;68533;51.090;17.216;2023-05-17T03:42:31;100328.16;;;7.89;93.96
79136;BME280;68533;51.090;17.216;2023-05-17T03:44:58;100327.34;;;7.89;92.90
79136;BME280;68533;51.090;17.216;2023-05-17T03:47:24;100334.16;;;7.81;94.10
79136;BME280;68533;51.090;17.216;2023-05-17T03:49:51;100335.50;;;7.78;94.06
79136;BME280;68533;51.090;17.216;2023-05-17T03:52:17;100342.66;;;7.85;94.53
79136;BME280;68533;51.090;17.216;2023-05-17T03:54:43;100334.97;;;7.87;94.15
79136;BME280;68533;51.090;17.216;2023-05-17T03:57:09;100337.44;;;7.83;93.41
79136;BME280;68533;51.090;17.216;2023-05-17T03:59:37;100336.06;;;7.80;93.88
79136;BME280;68533;51.090;17.216;2023-05-17T04:02:03;100345.34;;;7.79;93.75
79136;BME280;68533;51.090;17.216;2023-05-17T04:04:29;100347.25;;;7.74;93.56
79136;BME280;68533;51.090;17.216;2023-05-17T04:06:55;100350.84;;;7.79;93.55
79136;BME280;68533;51.090;17.216;2023-05-17T04:09:22;100348.66;;;7.82;93.91
79136;BME280;68533;51.090;17.216;2023-05-17T04:11:49;100352.47;;;7.75;93.43
79136;BME280;68533;51.090;17.216;2023-05-17T04:14:16;100353.00;;;7.72;93.81
79136;BME280;68533;51.090;17.216;2023-05-17T04:16:43;100353.81;;;7.73;93.61
79136;BME280;68533;51.090;17.216;2023-05-17T04:19:09;100356.31;;;7.74;93.63
79136;BME280;68533;51.090;17.216;2023-05-17T04:21:35;100351.91;;;7.73;93.16
79136;BME280;68533;51.090;17.216;2023-05-17T04:24:01;100356.81;;;7.71;93.08
79136;BME280;68533;51.090;17.216;2023-05-17T04:26:27;100364.75;;;7.63;93.42
79136;BME280;68533;51.090;17.216;2023-05-17T04:28:54;100362.25;;;7.61;92.26
79136;BME280;68533;51.090;17.216;2023-05-17T04:31:20;100371.84;;;7.64;91.77
79136;BME280;68533;51.090;17.216;2023-05-17T04:33:46;100368.84;;;7.65;92.14
79136;BME280;68533;51.090;17.216;2023-05-17T04:36:12;100378.97;;;7.65;92.97
79136;BME280;68533;51.090;17.216;2023-05-17T04:38:38;100378.47;;;7.73;91.91
79136;BME280;68533;51.090;17.216;2023-05-17T04:41:05;100388.31;;;7.74;92.15
79136;BME280;68533;51.090;17.216;2023-05-17T04:43:32;100386.16;;;7.76;92.03
79136;BME280;68533;51.090;17.216;2023-05-17T04:45:59;100385.59;;;7.79;90.83
79136;BME280;68533;51.090;17.216;2023-05-17T04:48:25;100385.91;;;7.83;92.77
79136;BME280;68533;51.090;17.216;2023-05-17T04:50:52;100387.31;;;7.90;90.71
79136;BME280;68533;51.090;17.216;2023-05-17T04:53:18;100396.09;;;7.92;90.08
79136;BME280;68533;51.090;17.216;2023-05-17T04:55:45;100391.97;;;7.90;90.42
79136;BME280;68533;51.090;17.216;2023-05-17T04:58:13;100384.59;;;7.95;91.34
79136;BME280;68533;51.090;17.216;2023-05-17T05:00:39;100385.97;;;7.98;91.20
79136;BME280;68533;51.090;17.216;2023-05-17T05:03:05;100384.59;;;7.95;88.62
79136;BME280;68533;51.090;17.216;2023-05-17T05:05:33;100390.56;;;7.82;88.82
79136;BME280;68533;51.090;17.216;2023-05-17T05:08:00;100388.06;;;7.75;89.24
79136;BME280;68533;51.090;17.216;2023-05-17T05:10:26;100392.72;;;7.75;88.66
79136;BME280;68533;51.090;17.216;2023-05-17T05:12:55;100392.47;;;7.87;90.85
79136;BME280;68533;51.090;17.216;2023-05-17T05:15:23;100391.13;;;7.84;87.95
79136;BME280;68533;51.090;17.216;2023-05-17T05:17:49;100392.97;;;7.78;88.70
79136;BME280;68533;51.090;17.216;2023-05-17T05:20:15;100394.38;;;7.81;86.63
79136;BME280;68533;51.090;17.216;2023-05-17T05:22:41;100399.28;;;7.79;87.27
79136;BME280;68533;51.090;17.216;2023-05-17T05:25:08;100404.00;;;7.89;87.37
79136;BME280;68533;51.090;17.216;2023-05-17T05:27:34;100413.56;;;7.86;86.77
79136;BME280;68533;51.090;17.216;2023-05-17T05:30:01;100408.13;;;7.96;85.94
79136;BME280;68533;51.090;17.216;2023-05-17T05:32:27;100416.09;;;7.98;85.94
79136;BME280;68533;51.090;17.216;2023-05-17T05:34:53;100421.59;;;8.03;85.28
79136;BME280;68533;51.090;17.216;2023-05-17T05:37:20;100419.47;;;8.15;86.65
79136;BME280;68533;51.090;17.216;2023-05-17T05:39:46;100428.50;;;8.21;86.16
79136;BME280;68533;51.090;17.216;2023-05-17T05:42:13;100433.19;;;8.30;85.48
79136;BME280;68533;51.090;17.216;2023-05-17T05:44:38;100425.03;;;8.40;84.18
79136;BME280;68533;51.090;17.216;2023-05-17T05:47:05;100424.78;;;8.37;83.74
79136;BME280;68533;51.090;17.216;2023-05-17T05:49:31;100436.28;;;8.44;83.09
79136;BME280;68533;51.090;17.216;2023-05-17T05:51:57;100432.16;;;8.41;83.79
79136;BME280;68533;51.090;17.216;2023-05-17T05:54:23;100437.44;;;8.63;83.66
79136;BME280;68533;51.090;17.216;2023-05-17T05:56:49;100440.19;;;8.78;84.18
79136;BME280;68533;51.090;17.216;2023-05-17T05:59:16;100446.22;;;8.75;82.41
79136;BME280;68533;51.090;17.216;2023-05-17T06:01:42;100447.31;;;8.69;82.88
79136;BME280;68533;51.090;17.216;2023-05-17T06:04:08;100451.97;;;8.64;81.58
79136;BME280;68533;51.090;17.216;2023-05-17T06:06:35;100459.09;;;8.70;80.87
79136;BME280;68533;51.090;17.216;2023-05-17T06:09:01;100465.09;;;8.62;80.26
79136;BME280;68533;51.090;17.216;2023-05-17T06:11:27;100465.44;;;8.80;81.51
79136;BME280;68533;51.090;17.216;2023-05-17T06:13:53;100458.84;;;8.76;80.12
79136;BME280;68533;51.090;17.216;2023-05-17T06:16:21;100467.66;;;8.88;78.88
79136;BME280;68533;51.090;17.216;2023-05-17T06:18:47;100464.91;;;8.99;81.07
79136;BME280;68533;51.090;17.216;2023-05-17T06:21:13;100470.66;;;8.97;79.91
79136;BME280;68533;51.090;17.216;2023-05-17T06:23:40;100469.84;;;8.91;80.44
79136;BME280;68533;51.090;17.216;2023-05-17T06:26:06;100472.31;;;8.98;79.10
79136;BME280;68533;51.090;17.216;2023-05-17T06:28:36;100468.75;;;8.87;78.34
79136;BME280;68533;51.090;17.216;2023-05-17T06:31:03;100477.00;;;9.03;79.81
79136;BME280;68533;51.090;17.216;2023-05-17T06:33:29;100482.47;;;9.28;80.73
79136;BME280;68533;51.090;17.216;2023-05-17T06:35:55;100485.22;;;9.23;79.05
79136;BME280;68533;51.090;17.216;2023-05-17T06:38:24;100491.81;;;9.32;77.89
79136;BME280;68533;51.090;17.216;2023-05-17T06:40:51;100489.59;;;9.19;77.07
79136;BME280;68533;51.090;17.216;2023-05-17T06:43:18;100488.53;;;9.40;79.27
79136;BME280;68533;51.090;17.216;2023-05-17T06:45:44;100503.06;;;9.25;76.85
79136;BME280;68533;51.090;17.216;2023-05-17T06:48:10;100500.06;;;9.17;76.04
79136;BME280;68533;51.090;17.216;2023-05-17T06:50:39;100518.13;;;9.08;78.17
79136;BME280;68533;51.090;17.216;2023-05-17T06:53:06;100522.53;;;9.04;79.61
79136;BME280;68533;51.090;17.216;2023-05-17T06:55:32;100523.09;;;9.21;79.59
79136;BME280;68533;51.090;17.216;2023-05-17T06:57:58;100522.81;;;9.17;78.02
79136;BME280;68533;51.090;17.216;2023-05-17T07:00:26;100518.41;;;9.06;76.47
79136;BME280;68533;51.090;17.216;2023-05-17T07:02:53;100534.31;;;9.19;77.76
79136;BME280;68533;51.090;17.216;2023-05-17T07:05:21;100531.34;;;9.36;77.20
79136;BME280;68533;51.090;17.216;2023-05-17T07:07:48;100528.34;;;9.32;76.92
79136;BME280;68533;51.090;17.216;2023-05-17T07:10:18;100543.72;;;9.33;75.89
79136;BME280;68533;51.090;17.216;2023-05-17T07:12:44;100537.91;;;9.35;76.96
79136;BME280;68533;51.090;17.216;2023-05-17T07:15:10;100536.81;;;9.56;77.53
79136;BME280;68533;51.090;17.216;2023-05-17T07:17:36;100539.31;;;9.48;77.28
79136;BME280;68533;51.090;17.216;2023-05-17T07:20:03;100545.34;;;9.45;78.45
79136;BME280;68533;51.090;17.216;2023-05-17T07:22:30;100553.59;;;9.40;77.52
79136;BME280;68533;51.090;17.216;2023-05-17T07:24:56;100560.72;;;9.25;77.67
79136;BME280;68533;51.090;17.216;2023-05-17T07:27:25;100549.19;;;9.44;78.88
79136;BME280;68533;51.090;17.216;2023-05-17T07:29:52;100549.75;;;9.46;77.14
79136;BME280;68533;51.090;17.216;2023-05-17T07:32:17;100550.81;;;9.50;77.13
79136;BME280;68533;51.090;17.216;2023-05-17T07:34:44;100554.69;;;9.59;76.67
79136;BME280;68533;51.090;17.216;2023-05-17T07:37:10;100556.59;;;9.43;75.09
79136;BME280;68533;51.090;17.216;2023-05-17T07:39:37;100551.38;;;9.52;77.62
79136;BME280;68533;51.090;17.216;2023-05-17T07:42:03;100556.88;;;9.52;76.74
79136;BME280;68533;51.090;17.216;2023-05-17T07:44:30;100551.66;;;9.50;76.02
79136;BME280;68533;51.090;17.216;2023-05-17T07:46:55;100551.94;;;9.74;77.53
79136;BME280;68533;51.090;17.216;2023-05-17T07:49:22;100567.88;;;9.82;76.07
79136;BME280;68533;51.090;17.216;2023-05-17T07:51:51;100574.44;;;9.81;75.59
79136;BME280;68533;51.090;17.216;2023-05-17T07:54:25;100568.69;;;9.78;74.98
79136;BME280;68533;51.090;17.216;2023-05-17T07:56:53;100581.31;;;9.73;74.26
79136;BME280;68533;51.090;17.216;2023-05-17T07:59:21;100581.88;;;9.76;74.95
79136;BME280;68533;51.090;17.216;2023-05-17T08:01:46;100590.09;;;9.81;75.35
79136;BME280;68533;51.090;17.216;2023-05-17T08:04:13;100580.22;;;9.90;76.91
79136;BME280;68533;51.090;17.216;2023-05-17T08:06:39;100575.25;;;9.87;76.62
79136;BME280;68533;51.090;17.216;2023-05-17T08:09:06;100572.50;;;9.87;74.97
79136;BME280;68533;51.090;17.216;2023-05-17T08:11:32;100573.06;;;9.73;74.56
79136;BME280;68533;51.090;17.216;2023-05-17T08:14:00;100573.34;;;9.92;75.76
79136;BME280;68533;51.090;17.216;2023-05-17T08:16:26;100571.97;;;9.80;75.16
79136;BME280;68533;51.090;17.216;2023-05-17T08:18:52;100565.13;;;9.62;74.51
79136;BME280;68533;51.090;17.216;2023-05-17T08:21:18;100576.38;;;9.76;76.51
79136;BME280;68533;51.090;17.216;2023-05-17T08:23:45;100566.22;;;9.91;76.59
79136;BME280;68533;51.090;17.216;2023-05-17T08:26:11;100567.03;;;9.92;76.68
79136;BME280;68533;51.090;17.216;2023-05-17T08:28:40;100566.50;;;9.74;75.48
79136;BME280;68533;51.090;17.216;2023-05-17T08:31:06;100565.66;;;9.84;73.99
79136;BME280;68533;51.090;17.216;2023-05-17T08:33:33;100567.31;;;9.80;73.90
79136;BME280;68533;51.090;17.216;2023-05-17T08:35:59;100572.53;;;9.92;75.25
79136;BME280;68533;51.090;17.216;2023-05-17T08:38:27;100568.66;;;10.03;74.71
79136;BME280;68533;51.090;17.216;2023-05-17T08:40:54;100568.94;;;9.86;75.67
79136;BME280;68533;51.090;17.216;2023-05-17T08:43:22;100563.41;;;10.17;75.71
79136;BME280;68533;51.090;17.216;2023-05-17T08:45:49;100567.03;;;10.22;75.30
79136;BME280;68533;51.090;17.216;2023-05-17T08:48:16;100563.97;;;10.08;72.61
79136;BME280;68533;51.090;17.216;2023-05-17T08:50:45;100560.16;;;9.99;74.33
79136;BME280;68533;51.090;17.216;2023-05-17T08:53:12;100571.13;;;10.25;74.40
79136;BME280;68533;51.090;17.216;2023-05-17T08:55:42;100574.97;;;10.34;72.46
79136;BME280;68533;51.090;17.216;2023-05-17T08:58:22;100569.19;;;10.25;72.63
79136;BME280;68533;51.090;17.216;2023-05-17T09:00:51;100570.81;;;10.31;71.84
79136;BME280;68533;51.090;17.216;2023-05-17T09:03:23;100565.84;;;10.48;73.15
79136;BME280;68533;51.090;17.216;2023-05-17T09:05:50;100567.50;;;10.49;72.50
79136;BME280;68533;51.090;17.216;2023-05-17T09:08:21;100566.00;;;10.77;72.07
79136;BME280;68533;51.090;17.216;2023-05-17T09:10:48;100567.09;;;10.76;71.60
79136;BME280;68533;51.090;17.216;2023-05-17T09:13:15;100561.53;;;10.92;72.72
79136;BME280;68533;51.090;17.216;2023-05-17T09:15:42;100570.94;;;10.80;72.45
79136;BME280;68533;51.090;17.216;2023-05-17T09:18:10;100576.38;;;10.90;71.40
79136;BME280;68533;51.090;17.216;2023-05-17T09:20:37;100576.94;;;10.93;72.84
79136;BME280;68533;51.090;17.216;2023-05-17T09:23:08;100569.78;;;11.41;72.64
79136;BME280;68533;51.090;17.216;2023-05-17T09:25:35;100569.78;;;11.41;70.07
79136;BME280;68533;51.090;17.216;2023-05-17T09:28:04;100585.22;;;11.37;69.20
79136;BME280;68533;51.090;17.216;2023-05-17T09:30:33;100570.00;;;11.00;70.91
79136;BME280;68533;51.090;17.216;2023-05-17T09:33:07;100576.56;;;11.09;71.20
79136;BME280;68533;51.090;17.216;2023-05-17T09:35:35;100572.22;;;11.03;69.79
79136;BME280;68533;51.090;17.216;2023-05-17T09:38:08;100569.28;;;11.28;69.38
79136;BME280;68533;51.090;17.216;2023-05-17T09:40:44;100565.84;;;11.52;69.26
79136;BME280;68533;51.090;17.216;2023-05-17T09:43:12;100566.13;;;11.06;69.67
79136;BME280;68533;51.090;17.216;2023-05-17T09:45:38;100565.84;;;11.52;70.07
79136;BME280;68533;51.090;17.216;2023-05-17T09:48:15;100568.22;;;11.24;68.94
79136;BME280;68533;51.090;17.216;2023-05-17T09:50:45;100572.31;;;11.27;69.40
79136;BME280;68533;51.090;17.216;2023-05-17T09:53:32;100568.88;;;11.11;69.71
79136;BME280;68533;51.090;17.216;2023-05-17T09:56:03;100575.47;;;11.05;69.78
79136;BME280;68533;51.090;17.216;2023-05-17T09:58:32;100589.84;;;10.97;69.43
79136;BME280;68533;51.090;17.216;2023-05-17T10:01:03;100577.78;;;10.88;70.06
79136;BME280;68533;51.090;17.216;2023-05-17T10:03:33;100582.88;;;11.15;71.04
79136;BME280;68533;51.090;17.216;2023-05-17T10:06:02;100587.34;;;11.01;71.72
79136;BME280;68533;51.090;17.216;2023-05-17T10:08:31;100589.84;;;10.97;69.67
79136;BME280;68533;51.090;17.216;2023-05-17T10:11:02;100590.63;;;11.08;69.34
79136;BME280;68533;51.090;17.216;2023-05-17T10:13:33;100586.28;;;10.92;68.96
79136;BME280;68533;51.090;17.216;2023-05-17T10:16:01;100578.22;;;11.05;69.33
79136;BME280;68533;51.090;17.216;2023-05-17T10:18:28;100592.31;;;10.99;69.28
79136;BME280;68533;51.090;17.216;2023-05-17T10:20:56;100594.19;;;11.08;70.69
79136;BME280;68533;51.090;17.216;2023-05-17T10:23:25;100592.34;;;10.94;69.34
79136;BME280;68533;51.090;17.216;2023-05-17T10:25:52;100595.28;;;11.07;68.75
79136;BME280;68533;51.090;17.216;2023-05-17T10:28:19;100600.47;;;11.14;68.32
79136;BME280;68533;51.090;17.216;2023-05-17T10:30:46;100595.78;;;11.19;69.41
79136;BME280;68533;51.090;17.216;2023-05-17T10:33:14;100602.59;;;11.27;68.81
79136;BME280;68533;51.090;17.216;2023-05-17T10:35:42;100603.75;;;11.21;69.36
79136;BME280;68533;51.090;17.216;2023-05-17T10:38:10;100606.09;;;11.48;71.50
79136;BME280;68533;51.090;17.216;2023-05-17T10:40:37;100610.41;;;11.15;68.72
79136;BME280;68533;51.090;17.216;2023-05-17T10:43:08;100614.28;;;11.09;68.87
79136;BME280;68533;51.090;17.216;2023-05-17T10:45:35;100606.84;;;11.04;68.04
79136;BME280;68533;51.090;17.216;2023-05-17T10:48:06;100604.84;;;11.20;70.29
79136;BME280;68533;51.090;17.216;2023-05-17T10:50:36;100606.81;;;11.14;69.07
79136;BME280;68533;51.090;17.216;2023-05-17T10:53:08;100615.66;;;11.06;68.77
79136;BME280;68533;51.090;17.216;2023-05-17T10:55:40;100602.00;;;11.35;72.11
79136;BME280;68533;51.090;17.216;2023-05-17T10:58:18;100603.44;;;11.27;67.90
79136;BME280;68533;51.090;17.216;2023-05-17T11:00:50;100614.84;;;11.55;69.93
79136;BME280;68533;51.090;17.216;2023-05-17T11:03:24;100612.41;;;11.43;67.02
79136;BME280;68533;51.090;17.216;2023-05-17T11:08:36;100612.88;;;11.16;67.12
79136;BME280;68533;51.090;17.216;2023-05-17T11:11:10;100605.13;;;11.23;66.66
79136;BME280;68533;51.090;17.216;2023-05-17T11:13:50;100618.03;;;11.28;66.96
79136;BME280;68533;51.090;17.216;2023-05-17T11:16:37;100609.84;;;11.18;66.24
79136;BME280;68533;51.090;17.216;2023-05-17T11:19:09;100610.34;;;11.20;65.63
79136;BME280;68533;51.090;17.216;2023-05-17T11:21:44;100609.81;;;11.23;66.35
79136;BME280;68533;51.090;17.216;2023-05-17T11:24:15;100613.34;;;11.28;68.29
79136;BME280;68533;51.090;17.216;2023-05-17T11:26:44;100608.94;;;11.33;66.82
79136;BME280;68533;51.090;17.216;2023-05-17T11:29:14;100609.44;;;11.40;66.87
79136;BME280;68533;51.090;17.216;2023-05-17T11:31:43;100611.88;;;11.41;68.18
79136;BME280;68533;51.090;17.216;2023-05-17T11:34:12;100607.09;;;11.18;65.75
79136;BME280;68533;51.090;17.216;2023-05-17T11:36:54;100593.56;;;11.21;65.42
79136;BME280;68533;51.090;17.216;2023-05-17T11:39:22;100596.03;;;11.23;66.31
79136;BME280;68533;51.090;17.216;2023-05-17T11:41:50;100592.19;;;11.19;67.05
79136;BME280;68533;51.090;17.216;2023-05-17T11:44:31;100591.34;;;11.23;67.80
79136;BME280;68533;51.090;17.216;2023-05-17T11:47:05;100595.06;;;11.48;67.22
79136;BME280;68533;51.090;17.216;2023-05-17T11:49:37;100598.09;;;11.46;66.60
79136;BME280;68533;51.090;17.216;2023-05-17T11:52:06;100601.41;;;11.43;67.39
79136;BME280;68533;51.090;17.216;2023-05-17T11:54:37;100606.31;;;11.51;65.13
79136;BME280;68533;51.090;17.216;2023-05-17T11:57:05;100598.75;;;11.33;65.21
79136;BME280;68533;51.090;17.216;2023-05-17T11:59:38;100603.97;;;11.29;65.46
79136;BME280;68533;51.090;17.216;2023-05-17T12:02:07;100595.75;;;11.24;64.63
79136;BME280;68533;51.090;17.216;2023-05-17T12:04:37;100599.63;;;11.23;65.73
79136;BME280;68533;51.090;17.216;2023-05-17T12:07:07;100601.25;;;11.24;65.24
79136;BME280;68533;51.090;17.216;2023-05-17T12:09:37;100604.81;;;11.30;64.98
79136;BME280;68533;51.090;17.216;2023-05-17T12:12:03;100604.44;;;11.42;64.81
79136;BME280;68533;51.090;17.216;2023-05-17T12:14:32;100597.38;;;11.31;65.16
79136;BME280;68533;51.090;17.216;2023-05-17T12:16:59;100600.63;;;11.38;64.64
79136;BME280;68533;51.090;17.216;2023-05-17T12:19:28;100606.97;;;11.38;65.07
79136;BME280;68533;51.090;17.216;2023-05-17T12:22:06;100607.78;;;11.39;66.89
79136;BME280;68533;51.090;17.216;2023-05-17T12:24:38;100609.66;;;11.43;65.38
79136;BME280;68533;51.090;17.216;2023-05-17T12:27:08;100616.78;;;11.54;66.34
79136;BME280;68533;51.090;17.216;2023-05-17T12:29:37;100613.47;;;11.52;66.10
79136;BME280;68533;51.090;17.216;2023-05-17T12:32:07;100622.00;;;11.51;68.76
79136;BME280;68533;51.090;17.216;2023-05-17T12:34:34;100612.41;;;11.48;67.91
79136;BME280;68533;51.090;17.216;2023-05-17T12:37:01;100622.50;;;11.58;66.60
79136;BME280;68533;51.090;17.216;2023-05-17T12:39:30;100622.00;;;11.51;67.06
79136;BME280;68533;51.090;17.216;2023-05-17T12:41:57;100619.81;;;11.53;67.27
79136;BME280;68533;51.090;17.216;2023-05-17T12:44:24;100620.69;;;11.48;67.92
79136;BME280;68533;51.090;17.216;2023-05-17T12:46:50;100617.44;;;11.36;67.96
79136;BME280;68533;51.090;17.216;2023-05-17T12:49:20;100621.28;;;11.35;68.23
79136;BME280;68533;51.090;17.216;2023-05-17T12:51:49;100626.00;;;11.29;68.01
79136;BME280;68533;51.090;17.216;2023-05-17T12:54:31;100633.66;;;11.38;68.37
79136;BME280;68533;51.090;17.216;2023-05-17T12:56:57;100635.28;;;11.44;68.80
79136;BME280;68533;51.090;17.216;2023-05-17T12:59:24;100630.75;;;11.63;68.41
79136;BME280;68533;51.090;17.216;2023-05-17T13:01:55;100624.66;;;11.66;66.57
79136;BME280;68533;51.090;17.216;2023-05-17T13:04:29;100633.84;;;11.51;68.62
79136;BME280;68533;51.090;17.216;2023-05-17T13:07:00;100637.53;;;11.37;67.65
79136;BME280;68533;51.090;17.216;2023-05-17T13:09:28;100642.56;;;11.24;69.32
79136;BME280;68533;51.090;17.216;2023-05-17T13:11:59;100645.63;;;11.18;69.88